sensor_id;sensor_type;location;lat;lon;timestamp;P1;durP1;ratioP1;P2;durP2;ratioP2
43620;SDS011;29213;50.770;7.298;2023-02-28T00:01:01;18.77;;;9.70;;
43620;SDS011;29213;50.770;7.298;2023-02-28T00:03:26;20.45;;;10.38;;
43620;SDS011;29213;50.770;7.298;2023-02-28T00:05:51;24.27;;;12.32;;
43620;SDS011;29213;50.770;7.298;2023-02-28T00:08:17;23.73;;;12.57;;
43620;SDS011;29213;50.770;7.298;2023-02-28T00:10:42;22.30;;;10.85;;
43620;SDS011;29213;50.770;7.298;2023-02-28T00:13:08;18.05;;;9.10;;
43620;SDS011;29213;50.770;7.298;2023-02-28T00:15:33;15.48;;;8.35;;
43620;SDS011;29213;50.770;7.298;2023-02-28T00:17:59;17.00;;;8.57;;
43620;SDS011;29213;50.770;7.298;2023-02-28T00:20:24;12.82;;;7.00;;
43620;SDS011;29213;50.770;7.298;2023-02-28T00:22:51;9.95;;;6.28;;
43620;SDS011;29213;50.770;7.298;2023-02-28T00:25:19;11.88;;;6.60;;
43620;SDS011;29213;50.770;7.298;2023-02-28T00:27:47;9.70;;;5.75;;
43620;SDS011;29213;50.770;7.298;2023-02-28T00:30:17;10.65;;;5.93;;
43620;SDS011;29213;50.770;7.298;2023-02-28T00:32:43;9.18;;;5.53;;
43620;SDS011;29213;50.770;7.298;2023-02-28T00:35:09;11.27;;;5.95;;
43620;SDS011;29213;50.770;7.298;2023-02-28T00:37:35;10.13;;;6.13;;
43620;SDS011;29213;50.770;7.298;2023-02-28T00:40:01;10.82;;;5.97;;
43620;SDS011;29213;50.770;7.298;2023-02-28T00:42:29;11.55;;;6.20;;
43620;SDS011;29213;50.770;7.298;2023-02-28T00:44:55;12.10;;;6.10;;
43620;SDS011;29213;50.770;7.298;2023-02-28T00:47:20;11.23;;;6.18;;
43620;SDS011;29213;50.770;7.298;2023-02-28T00:49:46;13.93;;;7.00;;
43620;SDS011;29213;50.770;7.298;2023-02-28T00:52:11;12.68;;;6.68;;
43620;SDS011;29213;50.770;7.298;2023-02-28T00:54:36;12.13;;;6.68;;
43620;SDS011;29213;50.770;7.298;2023-02-28T00:57:02;11.82;;;6.55;;
43620;SDS011;29213;50.770;7.298;2023-02-28T00:59:27;13.68;;;7.07;;
43620;SDS011;29213;50.770;7.298;2023-02-28T01:01:53;11.65;;;5.60;;
43620;SDS011;29213;50.770;7.298;2023-02-28T01:04:18;11.75;;;5.40;;
43620;SDS011;29213;50.770;7.298;2023-02-28T01:06:44;10.25;;;5.15;;
43620;SDS011;29213;50.770;7.298;2023-02-28T01:09:09;11.57;;;5.38;;
43620;SDS011;29213;50.770;7.298;2023-02-28T01:11:35;9.73;;;5.00;;
43620;SDS011;29213;50.770;7.298;2023-02-28T01:14:01;10.43;;;5.13;;
43620;SDS011;29213;50.770;7.298;2023-02-28T01:16:27;9.23;;;5.00;;
43620;SDS011;29213;50.770;7.298;2023-02-28T01:18:53;10.02;;;4.50;;
43620;SDS011;29213;50.770;7.298;2023-02-28T01:21:19;10.10;;;5.50;;
43620;SDS011;29213;50.770;7.298;2023-02-28T01:23:46;12.15;;;5.25;;
43620;SDS011;29213;50.770;7.298;2023-02-28T01:26:13;7.97;;;4.35;;
43620;SDS011;29213;50.770;7.298;2023-02-28T01:28:41;9.95;;;4.80;;
43620;SDS011;29213;50.770;7.298;2023-02-28T01:31:07;8.38;;;4.50;;
43620;SDS011;29213;50.770;7.298;2023-02-28T01:33:33;9.48;;;4.90;;
43620;SDS011;29213;50.770;7.298;2023-02-28T01:35:59;9.60;;;4.82;;
43620;SDS011;29213;50.770;7.298;2023-02-28T01:38:26;9.25;;;4.78;;
43620;SDS011;29213;50.770;7.298;2023-02-28T01:40:52;8.13;;;4.28;;
43620;SDS011;29213;50.770;7.298;2023-02-28T01:43:22;9.57;;;4.85;;
43620;SDS011;29213;50.770;7.298;2023-02-28T01:45:49;7.20;;;4.10;;
43620;SDS011;29213;50.770;7.298;2023-02-28T01:48:15;6.60;;;3.80;;
43620;SDS011;29213;50.770;7.298;2023-02-28T01:50:42;7.93;;;4.03;;
43620;SDS011;29213;50.770;7.298;2023-02-28T01:53:14;8.93;;;4.40;;
43620;SDS011;29213;50.770;7.298;2023-02-28T01:55:44;7.55;;;4.50;;
43620;SDS011;29213;50.770;7.298;2023-02-28T01:58:14;9.57;;;5.05;;
43620;SDS011;29213;50.770;7.298;2023-02-28T02:00:41;12.18;;;5.38;;
43620;SDS011;29213;50.770;7.298;2023-02-28T02:03:12;8.75;;;4.53;;
43620;SDS011;29213;50.770;7.298;2023-02-28T02:05:40;9.23;;;5.28;;
43620;SDS011;29213;50.770;7.298;2023-02-28T02:08:08;7.45;;;4.60;;
43620;SDS011;29213;50.770;7.298;2023-02-28T02:10:39;10.02;;;5.20;;
43620;SDS011;29213;50.770;7.298;2023-02-28T02:13:11;9.32;;;4.93;;
43620;SDS011;29213;50.770;7.298;2023-02-28T02:19:21;8.85;;;4.70;;
43620;SDS011;29213;50.770;7.298;2023-02-28T02:30:26;9.13;;;4.38;;
43620;SDS011;29213;50.770;7.298;2023-02-28T02:36:00;8.93;;;4.13;;
43620;SDS011;29213;50.770;7.298;2023-02-28T02:38:34;8.25;;;4.40;;
43620;SDS011;29213;50.770;7.298;2023-02-28T02:41:14;7.55;;;4.20;;
43620;SDS011;29213;50.770;7.298;2023-02-28T02:46:23;7.68;;;4.45;;
43620;SDS011;29213;50.770;7.298;2023-02-28T02:48:54;7.57;;;4.32;;
43620;SDS011;29213;50.770;7.298;2023-02-28T02:51:22;9.82;;;4.30;;
43620;SDS011;29213;50.770;7.298;2023-02-28T02:54:03;7.90;;;3.97;;
43620;SDS011;29213;50.770;7.298;2023-02-28T02:56:31;6.45;;;3.67;;
43620;SDS011;29213;50.770;7.298;2023-02-28T02:59:06;6.38;;;4.10;;
43620;SDS011;29213;50.770;7.298;2023-02-28T03:01:34;7.50;;;4.03;;
43620;SDS011;29213;50.770;7.298;2023-02-28T03:04:02;7.60;;;4.07;;
43620;SDS011;29213;50.770;7.298;2023-02-28T03:06:30;7.65;;;4.10;;
43620;SDS011;29213;50.770;7.298;2023-02-28T03:08:56;5.60;;;3.60;;
43620;SDS011;29213;50.770;7.298;2023-02-28T03:11:21;6.72;;;3.75;;
43620;SDS011;29213;50.770;7.298;2023-02-28T03:19:37;7.53;;;3.75;;
43620;SDS011;29213;50.770;7.298;2023-02-28T03:25:18;7.28;;;3.55;;
43620;SDS011;29213;50.770;7.298;2023-02-28T03:27:54;6.70;;;3.55;;
43620;SDS011;29213;50.770;7.298;2023-02-28T03:33:42;6.20;;;3.40;;
43620;SDS011;29213;50.770;7.298;2023-02-28T03:36:20;7.03;;;3.53;;
43620;SDS011;29213;50.770;7.298;2023-02-28T03:38:58;6.70;;;3.33;;
43620;SDS011;29213;50.770;7.298;2023-02-28T03:41:31;7.40;;;3.80;;
43620;SDS011;29213;50.770;7.298;2023-02-28T03:44:08;8.10;;;3.70;;
43620;SDS011;29213;50.770;7.298;2023-02-28T03:46:41;5.53;;;3.70;;
43620;SDS011;29213;50.770;7.298;2023-02-28T03:49:15;5.90;;;3.40;;
43620;SDS011;29213;50.770;7.298;2023-02-28T03:51:45;9.35;;;4.05;;
43620;SDS011;29213;50.770;7.298;2023-02-28T03:54:15;7.53;;;3.55;;
43620;SDS011;29213;50.770;7.298;2023-02-28T03:56:46;6.25;;;3.67;;
43620;SDS011;29213;50.770;7.298;2023-02-28T04:01:47;7.22;;;4.03;;
43620;SDS011;29213;50.770;7.298;2023-02-28T04:04:13;6.35;;;3.67;;
43620;SDS011;29213;50.770;7.298;2023-02-28T04:06:40;7.93;;;4.10;;
43620;SDS011;29213;50.770;7.298;2023-02-28T04:09:07;6.38;;;3.70;;
43620;SDS011;29213;50.770;7.298;2023-02-28T04:11:37;7.18;;;3.50;;
43620;SDS011;29213;50.770;7.298;2023-02-28T04:14:05;6.35;;;3.53;;
43620;SDS011;29213;50.770;7.298;2023-02-28T04:16:32;7.13;;;3.78;;
43620;SDS011;29213;50.770;7.298;2023-02-28T04:18:59;7.75;;;3.92;;
43620;SDS011;29213;50.770;7.298;2023-02-28T04:21:28;6.65;;;3.85;;
43620;SDS011;29213;50.770;7.298;2023-02-28T04:23:54;9.05;;;4.32;;
43620;SDS011;29213;50.770;7.298;2023-02-28T04:26:20;8.77;;;4.05;;
43620;SDS011;29213;50.770;7.298;2023-02-28T04:28:45;7.05;;;4.13;;
43620;SDS011;29213;50.770;7.298;2023-02-28T04:31:11;7.00;;;4.30;;
43620;SDS011;29213;50.770;7.298;2023-02-28T04:33:36;7.60;;;4.45;;
43620;SDS011;29213;50.770;7.298;2023-02-28T04:36:02;7.03;;;4.10;;
43620;SDS011;29213;50.770;7.298;2023-02-28T04:38:34;7.10;;;4.20;;
43620;SDS011;29213;50.770;7.298;2023-02-28T04:41:01;6.50;;;4.00;;
43620;SDS011;29213;50.770;7.298;2023-02-28T04:43:27;7.28;;;4.32;;
43620;SDS011;29213;50.770;7.298;2023-02-28T04:45:53;6.72;;;4.18;;
43620;SDS011;29213;50.770;7.298;2023-02-28T04:48:22;7.60;;;4.65;;
43620;SDS011;29213;50.770;7.298;2023-02-28T04:50:52;7.82;;;4.90;;
43620;SDS011;29213;50.770;7.298;2023-02-28T04:53:17;9.98;;;4.90;;
43620;SDS011;29213;50.770;7.298;2023-02-28T04:55:44;7.55;;;4.80;;
43620;SDS011;29213;50.770;7.298;2023-02-28T04:58:10;7.30;;;4.50;;
43620;SDS011;29213;50.770;7.298;2023-02-28T05:00:35;7.05;;;4.22;;
43620;SDS011;29213;50.770;7.298;2023-02-28T05:03:01;7.07;;;4.65;;
43620;SDS011;29213;50.770;7.298;2023-02-28T05:05:26;9.65;;;4.32;;
43620;SDS011;29213;50.770;7.298;2023-02-28T05:07:51;7.93;;;4.70;;
43620;SDS011;29213;50.770;7.298;2023-02-28T05:10:18;7.32;;;4.00;;
43620;SDS011;29213;50.770;7.298;2023-02-28T05:12:44;6.75;;;3.90;;
43620;SDS011;29213;50.770;7.298;2023-02-28T05:15:12;8.77;;;4.22;;
43620;SDS011;29213;50.770;7.298;2023-02-28T05:17:39;6.90;;;3.65;;
43620;SDS011;29213;50.770;7.298;2023-02-28T05:20:04;7.30;;;4.05;;
43620;SDS011;29213;50.770;7.298;2023-02-28T05:22:30;7.30;;;4.18;;
43620;SDS011;29213;50.770;7.298;2023-02-28T05:24:57;8.13;;;4.20;;
43620;SDS011;29213;50.770;7.298;2023-02-28T05:27:22;7.93;;;3.90;;
43620;SDS011;29213;50.770;7.298;2023-02-28T05:29:48;6.97;;;3.58;;
43620;SDS011;29213;50.770;7.298;2023-02-28T05:32:13;7.75;;;3.95;;
43620;SDS011;29213;50.770;7.298;2023-02-28T05:34:38;7.90;;;4.30;;
43620;SDS011;29213;50.770;7.298;2023-02-28T05:37:05;7.68;;;4.38;;
43620;SDS011;29213;50.770;7.298;2023-02-28T05:39:32;6.78;;;4.38;;
43620;SDS011;29213;50.770;7.298;2023-02-28T05:41:58;7.75;;;4.43;;
43620;SDS011;29213;50.770;7.298;2023-02-28T05:44:23;8.20;;;5.00;;
43620;SDS011;29213;50.770;7.298;2023-02-28T05:46:49;9.30;;;5.15;;
43620;SDS011;29213;50.770;7.298;2023-02-28T05:49:14;8.37;;;5.17;;
43620;SDS011;29213;50.770;7.298;2023-02-28T05:51:40;8.68;;;5.35;;
43620;SDS011;29213;50.770;7.298;2023-02-28T05:54:05;8.17;;;4.90;;
43620;SDS011;29213;50.770;7.298;2023-02-28T05:56:31;8.10;;;4.68;;
43620;SDS011;29213;50.770;7.298;2023-02-28T05:58:59;8.10;;;4.57;;
43620;SDS011;29213;50.770;7.298;2023-02-28T06:01:32;7.47;;;4.50;;
43620;SDS011;29213;50.770;7.298;2023-02-28T06:04:03;8.70;;;4.95;;
43620;SDS011;29213;50.770;7.298;2023-02-28T06:06:30;11.73;;;6.90;;
43620;SDS011;29213;50.770;7.298;2023-02-28T06:08:56;13.82;;;7.80;;
43620;SDS011;29213;50.770;7.298;2023-02-28T06:11:22;11.00;;;7.28;;
43620;SDS011;29213;50.770;7.298;2023-02-28T06:13:53;12.50;;;7.80;;
43620;SDS011;29213;50.770;7.298;2023-02-28T06:16:20;12.02;;;7.65;;
43620;SDS011;29213;50.770;7.298;2023-02-28T06:18:45;14.30;;;8.38;;
43620;SDS011;29213;50.770;7.298;2023-02-28T06:21:11;14.95;;;7.82;;
43620;SDS011;29213;50.770;7.298;2023-02-28T06:23:37;11.77;;;7.63;;
43620;SDS011;29213;50.770;7.298;2023-02-28T06:26:02;11.02;;;6.57;;
43620;SDS011;29213;50.770;7.298;2023-02-28T06:28:28;9.80;;;5.30;;
43620;SDS011;29213;50.770;7.298;2023-02-28T06:30:53;8.60;;;5.68;;
43620;SDS011;29213;50.770;7.298;2023-02-28T06:33:19;9.75;;;6.05;;
43620;SDS011;29213;50.770;7.298;2023-02-28T06:35:46;12.57;;;6.43;;
43620;SDS011;29213;50.770;7.298;2023-02-28T06:38:12;11.83;;;6.50;;
43620;SDS011;29213;50.770;7.298;2023-02-28T06:40:37;13.93;;;8.77;;
43620;SDS011;29213;50.770;7.298;2023-02-28T06:43:03;11.70;;;6.82;;
43620;SDS011;29213;50.770;7.298;2023-02-28T06:45:28;10.48;;;6.30;;
43620;SDS011;29213;50.770;7.298;2023-02-28T06:47:54;9.70;;;6.57;;
43620;SDS011;29213;50.770;7.298;2023-02-28T06:50:20;10.60;;;6.63;;
43620;SDS011;29213;50.770;7.298;2023-02-28T06:52:45;10.73;;;6.87;;
43620;SDS011;29213;50.770;7.298;2023-02-28T06:55:11;15.80;;;8.30;;
43620;SDS011;29213;50.770;7.298;2023-02-28T06:57:37;20.00;;;10.63;;
43620;SDS011;29213;50.770;7.298;2023-02-28T07:00:04;19.73;;;10.77;;
43620;SDS011;29213;50.770;7.298;2023-02-28T07:02:34;21.20;;;11.40;;
43620;SDS011;29213;50.770;7.298;2023-02-28T07:05:01;24.30;;;11.80;;
43620;SDS011;29213;50.770;7.298;2023-02-28T07:07:26;22.63;;;12.00;;
43620;SDS011;29213;50.770;7.298;2023-02-28T07:09:52;21.57;;;10.43;;
43620;SDS011;29213;50.770;7.298;2023-02-28T07:12:17;15.30;;;8.43;;
43620;SDS011;29213;50.770;7.298;2023-02-28T07:14:42;14.52;;;8.15;;
43620;SDS011;29213;50.770;7.298;2023-02-28T07:17:08;12.05;;;7.53;;
43620;SDS011;29213;50.770;7.298;2023-02-28T07:19:36;13.02;;;7.65;;
43620;SDS011;29213;50.770;7.298;2023-02-28T07:22:02;27.88;;;8.65;;
43620;SDS011;29213;50.770;7.298;2023-02-28T07:24:28;20.33;;;9.77;;
43620;SDS011;29213;50.770;7.298;2023-02-28T07:26:54;15.20;;;9.00;;
43620;SDS011;29213;50.770;7.298;2023-02-28T07:29:20;14.48;;;7.75;;
43620;SDS011;29213;50.770;7.298;2023-02-28T07:31:45;13.35;;;8.40;;
43620;SDS011;29213;50.770;7.298;2023-02-28T07:34:11;13.68;;;7.78;;
43620;SDS011;29213;50.770;7.298;2023-02-28T07:36:37;11.43;;;7.13;;
43620;SDS011;29213;50.770;7.298;2023-02-28T07:39:03;14.18;;;7.60;;
43620;SDS011;29213;50.770;7.298;2023-02-28T07:41:29;13.77;;;8.30;;
43620;SDS011;29213;50.770;7.298;2023-02-28T07:43:58;11.48;;;8.30;;
43620;SDS011;29213;50.770;7.298;2023-02-28T07:46:25;13.55;;;8.43;;
43620;SDS011;29213;50.770;7.298;2023-02-28T07:48:51;11.68;;;7.97;;
43620;SDS011;29213;50.770;7.298;2023-02-28T07:51:17;11.50;;;7.75;;
43620;SDS011;29213;50.770;7.298;2023-02-28T07:53:43;11.50;;;8.07;;
43620;SDS011;29213;50.770;7.298;2023-02-28T07:56:08;12.75;;;8.10;;
43620;SDS011;29213;50.770;7.298;2023-02-28T07:58:35;12.02;;;7.85;;
43620;SDS011;29213;50.770;7.298;2023-02-28T08:01:05;11.68;;;8.48;;
43620;SDS011;29213;50.770;7.298;2023-02-28T08:05:57;11.73;;;7.90;;
43620;SDS011;29213;50.770;7.298;2023-02-28T08:08:22;11.75;;;8.32;;
43620;SDS011;29213;50.770;7.298;2023-02-28T08:10:48;11.90;;;8.38;;
43620;SDS011;29213;50.770;7.298;2023-02-28T08:13:13;11.15;;;7.80;;
43620;SDS011;29213;50.770;7.298;2023-02-28T08:15:40;10.02;;;7.03;;
43620;SDS011;29213;50.770;7.298;2023-02-28T08:18:07;11.32;;;6.22;;
43620;SDS011;29213;50.770;7.298;2023-02-28T08:20:33;14.82;;;6.95;;
43620;SDS011;29213;50.770;7.298;2023-02-28T08:22:58;10.00;;;6.40;;
43620;SDS011;29213;50.770;7.298;2023-02-28T08:25:23;10.43;;;6.00;;
43620;SDS011;29213;50.770;7.298;2023-02-28T08:27:50;9.25;;;5.60;;
43620;SDS011;29213;50.770;7.298;2023-02-28T08:30:17;7.28;;;4.78;;
43620;SDS011;29213;50.770;7.298;2023-02-28T08:32:42;6.00;;;3.88;;
43620;SDS011;29213;50.770;7.298;2023-02-28T08:35:08;6.03;;;3.47;;
43620;SDS011;29213;50.770;7.298;2023-02-28T08:37:34;4.75;;;2.80;;
43620;SDS011;29213;50.770;7.298;2023-02-28T08:39:59;7.13;;;3.50;;
43620;SDS011;29213;50.770;7.298;2023-02-28T08:42:25;4.28;;;3.03;;
43620;SDS011;29213;50.770;7.298;2023-02-28T08:44:50;6.20;;;3.47;;
43620;SDS011;29213;50.770;7.298;2023-02-28T08:47:16;4.60;;;3.05;;
43620;SDS011;29213;50.770;7.298;2023-02-28T08:49:41;4.90;;;2.92;;
43620;SDS011;29213;50.770;7.298;2023-02-28T08:52:07;4.70;;;2.90;;
43620;SDS011;29213;50.770;7.298;2023-02-28T08:54:32;5.28;;;3.00;;
43620;SDS011;29213;50.770;7.298;2023-02-28T08:56:59;4.30;;;2.78;;
43620;SDS011;29213;50.770;7.298;2023-02-28T08:59:24;4.78;;;2.60;;
43620;SDS011;29213;50.770;7.298;2023-02-28T09:01:49;4.47;;;2.70;;
43620;SDS011;29213;50.770;7.298;2023-02-28T09:04:15;4.30;;;2.70;;
43620;SDS011;29213;50.770;7.298;2023-02-28T09:06:40;5.88;;;2.70;;
43620;SDS011;29213;50.770;7.298;2023-02-28T09:09:05;5.03;;;2.78;;
43620;SDS011;29213;50.770;7.298;2023-02-28T09:11:33;4.63;;;2.60;;
43620;SDS011;29213;50.770;7.298;2023-02-28T09:14:00;5.32;;;2.78;;
43620;SDS011;29213;50.770;7.298;2023-02-28T09:16:26;4.82;;;2.45;;
43620;SDS011;29213;50.770;7.298;2023-02-28T09:18:51;4.50;;;2.42;;
43620;SDS011;29213;50.770;7.298;2023-02-28T09:21:17;5.43;;;2.47;;
43620;SDS011;29213;50.770;7.298;2023-02-28T09:23:44;3.42;;;1.83;;
43620;SDS011;29213;50.770;7.298;2023-02-28T09:26:20;4.88;;;2.88;;
43620;SDS011;29213;50.770;7.298;2023-02-28T09:28:49;5.20;;;2.30;;
43620;SDS011;29213;50.770;7.298;2023-02-28T09:31:20;3.47;;;2.00;;
43620;SDS011;29213;50.770;7.298;2023-02-28T09:33:49;4.78;;;2.30;;
43620;SDS011;29213;50.770;7.298;2023-02-28T09:36:15;3.55;;;2.03;;
43620;SDS011;29213;50.770;7.298;2023-02-28T09:38:41;4.68;;;2.15;;
43620;SDS011;29213;50.770;7.298;2023-02-28T09:41:14;4.25;;;2.22;;
43620;SDS011;29213;50.770;7.298;2023-02-28T09:43:43;3.97;;;2.10;;
43620;SDS011;29213;50.770;7.298;2023-02-28T09:48:51;3.20;;;1.90;;
43620;SDS011;29213;50.770;7.298;2023-02-28T09:51:35;4.88;;;2.20;;
43620;SDS011;29213;50.770;7.298;2023-02-28T09:54:16;5.00;;;1.92;;
43620;SDS011;29213;50.770;7.298;2023-02-28T09:56:45;6.13;;;2.30;;
43620;SDS011;29213;50.770;7.298;2023-02-28T10:02:37;6.93;;;3.53;;
43620;SDS011;29213;50.770;7.298;2023-02-28T10:05:12;7.65;;;2.90;;
43620;SDS011;29213;50.770;7.298;2023-02-28T10:10:32;5.85;;;3.03;;
43620;SDS011;29213;50.770;7.298;2023-02-28T10:13:27;4.22;;;2.35;;
43620;SDS011;29213;50.770;7.298;2023-02-28T10:16:23;4.65;;;2.63;;
43620;SDS011;29213;50.770;7.298;2023-02-28T10:24:28;3.37;;;1.90;;
43620;SDS011;29213;50.770;7.298;2023-02-28T10:27:01;3.50;;;1.85;;
43620;SDS011;29213;50.770;7.298;2023-02-28T10:29:36;3.72;;;2.00;;
43620;SDS011;29213;50.770;7.298;2023-02-28T10:32:08;6.18;;;2.30;;
43620;SDS011;29213;50.770;7.298;2023-02-28T10:34:37;4.55;;;2.10;;
43620;SDS011;29213;50.770;7.298;2023-02-28T10:37:03;3.72;;;2.00;;
43620;SDS011;29213;50.770;7.298;2023-02-28T10:39:39;5.22;;;2.13;;
43620;SDS011;29213;50.770;7.298;2023-02-28T10:44:47;4.00;;;2.10;;
43620;SDS011;29213;50.770;7.298;2023-02-28T10:47:16;4.35;;;1.85;;
43620;SDS011;29213;50.770;7.298;2023-02-28T10:49:47;3.55;;;1.60;;
43620;SDS011;29213;50.770;7.298;2023-02-28T10:52:14;4.07;;;2.15;;
43620;SDS011;29213;50.770;7.298;2023-02-28T10:55:20;4.35;;;2.40;;
43620;SDS011;29213;50.770;7.298;2023-02-28T10:57:50;5.20;;;2.70;;
43620;SDS011;29213;50.770;7.298;2023-02-28T11:00:18;3.45;;;1.77;;
43620;SDS011;29213;50.770;7.298;2023-02-28T11:02:46;3.58;;;1.80;;
43620;SDS011;29213;50.770;7.298;2023-02-28T11:05:31;3.50;;;1.90;;
43620;SDS011;29213;50.770;7.298;2023-02-28T11:08:02;3.20;;;1.63;;
43620;SDS011;29213;50.770;7.298;2023-02-28T11:10:33;5.47;;;1.90;;
43620;SDS011;29213;50.770;7.298;2023-02-28T11:13:01;3.33;;;1.95;;
43620;SDS011;29213;50.770;7.298;2023-02-28T11:15:37;3.80;;;2.00;;
43620;SDS011;29213;50.770;7.298;2023-02-28T11:18:16;3.67;;;1.95;;
43620;SDS011;29213;50.770;7.298;2023-02-28T11:21:02;3.90;;;2.03;;
43620;SDS011;29213;50.770;7.298;2023-02-28T11:23:29;3.15;;;1.75;;
43620;SDS011;29213;50.770;7.298;2023-02-28T11:25:59;3.83;;;1.95;;
43620;SDS011;29213;50.770;7.298;2023-02-28T11:28:30;5.22;;;1.92;;
43620;SDS011;29213;50.770;7.298;2023-02-28T11:31:01;4.05;;;1.90;;
43620;SDS011;29213;50.770;7.298;2023-02-28T11:36:29;4.10;;;2.33;;
43620;SDS011;29213;50.770;7.298;2023-02-28T11:38:59;4.88;;;2.33;;
43620;SDS011;29213;50.770;7.298;2023-02-28T11:47:37;4.80;;;2.10;;
43620;SDS011;29213;50.770;7.298;2023-02-28T11:55:55;3.67;;;1.92;;
43620;SDS011;29213;50.770;7.298;2023-02-28T11:58:38;4.13;;;2.00;;
43620;SDS011;29213;50.770;7.298;2023-02-28T12:03:59;4.38;;;2.15;;
43620;SDS011;29213;50.770;7.298;2023-02-28T12:06:36;4.10;;;2.35;;
43620;SDS011;29213;50.770;7.298;2023-02-28T12:09:30;4.05;;;1.98;;
43620;SDS011;29213;50.770;7.298;2023-02-28T12:12:21;3.53;;;1.85;;
43620;SDS011;29213;50.770;7.298;2023-02-28T12:15:16;3.53;;;1.95;;
43620;SDS011;29213;50.770;7.298;2023-02-28T12:21:01;3.97;;;1.80;;
43620;SDS011;29213;50.770;7.298;2023-02-28T12:26:31;4.15;;;1.70;;
43620;SDS011;29213;50.770;7.298;2023-02-28T12:29:03;4.15;;;1.98;;
43620;SDS011;29213;50.770;7.298;2023-02-28T12:34:39;3.88;;;2.10;;
43620;SDS011;29213;50.770;7.298;2023-02-28T12:37:17;3.65;;;2.08;;
43620;SDS011;29213;50.770;7.298;2023-02-28T12:39:49;4.20;;;2.40;;
43620;SDS011;29213;50.770;7.298;2023-02-28T12:48:01;4.25;;;2.33;;
43620;SDS011;29213;50.770;7.298;2023-02-28T12:50:31;4.13;;;2.20;;
43620;SDS011;29213;50.770;7.298;2023-02-28T12:55:49;5.30;;;2.58;;
43620;SDS011;29213;50.770;7.298;2023-02-28T12:58:36;4.55;;;2.30;;
43620;SDS011;29213;50.770;7.298;2023-02-28T13:09:51;4.40;;;2.38;;
43620;SDS011;29213;50.770;7.298;2023-02-28T13:12:18;3.88;;;2.17;;
43620;SDS011;29213;50.770;7.298;2023-02-28T13:14:45;4.20;;;2.10;;
43620;SDS011;29213;50.770;7.298;2023-02-28T13:17:12;4.05;;;2.20;;
43620;SDS011;29213;50.770;7.298;2023-02-28T13:22:44;4.20;;;2.22;;
43620;SDS011;29213;50.770;7.298;2023-02-28T13:27:47;5.65;;;2.35;;
43620;SDS011;29213;50.770;7.298;2023-02-28T13:33:24;5.18;;;2.70;;
43620;SDS011;29213;50.770;7.298;2023-02-28T13:44:07;4.25;;;2.20;;
43620;SDS011;29213;50.770;7.298;2023-02-28T13:46:34;4.57;;;2.42;;
43620;SDS011;29213;50.770;7.298;2023-02-28T13:57:17;4.97;;;2.67;;
43620;SDS011;29213;50.770;7.298;2023-02-28T14:00:18;3.60;;;2.35;;
43620;SDS011;29213;50.770;7.298;2023-02-28T14:03:31;4.22;;;2.60;;
43620;SDS011;29213;50.770;7.298;2023-02-28T14:09:06;4.32;;;2.70;;
43620;SDS011;29213;50.770;7.298;2023-02-28T14:11:53;4.43;;;2.83;;
43620;SDS011;29213;50.770;7.298;2023-02-28T14:17:01;3.78;;;2.55;;
43620;SDS011;29213;50.770;7.298;2023-02-28T14:19:29;4.80;;;2.72;;
43620;SDS011;29213;50.770;7.298;2023-02-28T14:27:40;4.78;;;2.75;;
43620;SDS011;29213;50.770;7.298;2023-02-28T14:33:35;4.63;;;3.15;;
43620;SDS011;29213;50.770;7.298;2023-02-28T14:36:28;5.22;;;2.83;;
43620;SDS011;29213;50.770;7.298;2023-02-28T14:38:59;4.47;;;2.63;;
43620;SDS011;29213;50.770;7.298;2023-02-28T14:41:32;4.47;;;2.40;;
43620;SDS011;29213;50.770;7.298;2023-02-28T14:44:25;6.00;;;2.95;;
43620;SDS011;29213;50.770;7.298;2023-02-28T14:46:54;4.78;;;2.60;;
43620;SDS011;29213;50.770;7.298;2023-02-28T14:49:24;6.13;;;2.90;;
43620;SDS011;29213;50.770;7.298;2023-02-28T14:54:41;4.72;;;2.88;;
43620;SDS011;29213;50.770;7.298;2023-02-28T14:57:19;5.10;;;2.30;;
43620;SDS011;29213;50.770;7.298;2023-02-28T14:59:56;6.25;;;3.15;;
43620;SDS011;29213;50.770;7.298;2023-02-28T15:02:24;4.57;;;3.25;;
43620;SDS011;29213;50.770;7.298;2023-02-28T15:05:01;4.57;;;2.50;;
43620;SDS011;29213;50.770;7.298;2023-02-28T15:07:42;6.18;;;3.13;;
43620;SDS011;29213;50.770;7.298;2023-02-28T15:20:59;4.95;;;2.90;;
43620;SDS011;29213;50.770;7.298;2023-02-28T15:23:29;5.60;;;3.30;;
43620;SDS011;29213;50.770;7.298;2023-02-28T15:25:55;6.90;;;3.13;;
43620;SDS011;29213;50.770;7.298;2023-02-28T15:28:22;5.15;;;3.13;;
43620;SDS011;29213;50.770;7.298;2023-02-28T15:30:53;4.88;;;2.88;;
43620;SDS011;29213;50.770;7.298;2023-02-28T15:33:25;4.68;;;3.03;;
43620;SDS011;29213;50.770;7.298;2023-02-28T15:36:06;5.18;;;3.28;;
43620;SDS011;29213;50.770;7.298;2023-02-28T15:38:38;4.03;;;2.75;;
43620;SDS011;29213;50.770;7.298;2023-02-28T15:41:03;4.47;;;2.97;;
43620;SDS011;29213;50.770;7.298;2023-02-28T15:43:34;5.55;;;2.85;;
43620;SDS011;29213;50.770;7.298;2023-02-28T15:46:08;4.05;;;2.80;;
43620;SDS011;29213;50.770;7.298;2023-02-28T15:48:36;4.63;;;2.83;;
43620;SDS011;29213;50.770;7.298;2023-02-28T15:53:37;4.35;;;3.03;;
43620;SDS011;29213;50.770;7.298;2023-02-28T15:56:19;6.55;;;3.50;;
43620;SDS011;29213;50.770;7.298;2023-02-28T15:58:48;5.30;;;2.88;;
43620;SDS011;29213;50.770;7.298;2023-02-28T16:01:33;13.38;;;5.85;;
43620;SDS011;29213;50.770;7.298;2023-02-28T16:04:03;8.90;;;4.35;;
43620;SDS011;29213;50.770;7.298;2023-02-28T16:09:14;6.32;;;4.00;;
43620;SDS011;29213;50.770;7.298;2023-02-28T16:11:42;5.30;;;3.20;;
43620;SDS011;29213;50.770;7.298;2023-02-28T16:14:15;4.65;;;2.97;;
43620;SDS011;29213;50.770;7.298;2023-02-28T16:16:43;6.38;;;3.38;;
43620;SDS011;29213;50.770;7.298;2023-02-28T16:19:11;4.80;;;3.25;;
43620;SDS011;29213;50.770;7.298;2023-02-28T16:21:36;4.53;;;3.10;;
43620;SDS011;29213;50.770;7.298;2023-02-28T16:24:01;5.78;;;3.20;;
43620;SDS011;29213;50.770;7.298;2023-02-28T16:26:27;5.70;;;3.20;;
43620;SDS011;29213;50.770;7.298;2023-02-28T16:28:53;7.25;;;3.75;;
43620;SDS011;29213;50.770;7.298;2023-02-28T16:31:19;6.88;;;4.13;;
43620;SDS011;29213;50.770;7.298;2023-02-28T16:33:45;5.80;;;3.22;;
43620;SDS011;29213;50.770;7.298;2023-02-28T16:36:15;6.32;;;3.67;;
43620;SDS011;29213;50.770;7.298;2023-02-28T16:38:50;7.57;;;3.33;;
43620;SDS011;29213;50.770;7.298;2023-02-28T16:41:17;11.48;;;6.32;;
43620;SDS011;29213;50.770;7.298;2023-02-28T16:43:48;9.73;;;5.80;;
43620;SDS011;29213;50.770;7.298;2023-02-28T16:46:17;7.82;;;4.40;;
43620;SDS011;29213;50.770;7.298;2023-02-28T16:48:43;9.45;;;5.18;;
43620;SDS011;29213;50.770;7.298;2023-02-28T16:51:13;9.10;;;5.07;;
43620;SDS011;29213;50.770;7.298;2023-02-28T16:53:40;8.15;;;3.92;;
43620;SDS011;29213;50.770;7.298;2023-02-28T16:56:05;6.57;;;4.15;;
43620;SDS011;29213;50.770;7.298;2023-02-28T16:58:32;4.78;;;3.00;;
43620;SDS011;29213;50.770;7.298;2023-02-28T17:01:01;4.55;;;3.00;;
43620;SDS011;29213;50.770;7.298;2023-02-28T17:03:27;15.88;;;9.57;;
43620;SDS011;29213;50.770;7.298;2023-02-28T17:05:53;8.75;;;5.45;;
43620;SDS011;29213;50.770;7.298;2023-02-28T17:08:19;8.38;;;4.80;;
43620;SDS011;29213;50.770;7.298;2023-02-28T17:10:45;13.77;;;8.82;;
43620;SDS011;29213;50.770;7.298;2023-02-28T17:13:10;9.27;;;5.85;;
43620;SDS011;29213;50.770;7.298;2023-02-28T17:15:36;11.85;;;7.05;;
43620;SDS011;29213;50.770;7.298;2023-02-28T17:18:02;10.25;;;6.85;;
43620;SDS011;29213;50.770;7.298;2023-02-28T17:20:28;28.55;;;15.63;;
43620;SDS011;29213;50.770;7.298;2023-02-28T17:22:54;27.30;;;16.92;;
43620;SDS011;29213;50.770;7.298;2023-02-28T17:25:20;9.75;;;5.55;;
43620;SDS011;29213;50.770;7.298;2023-02-28T17:27:46;7.25;;;4.35;;
43620;SDS011;29213;50.770;7.298;2023-02-28T17:30:17;8.27;;;4.90;;